Relevés horaires Elsenborn (Belgique)


Relevés horaires à Elsenborn - Vendredi 07 Févr. 2020
Heure UTC1 Température [°C] Vent [km/h] Hum. [%] Pres.4 [hPa] Visi. [Km] Nébu. [octa] Préc.5 [mm] Cond.
2m. Res. Ros. Dir.2 Vit. Moy. Raf.3
23:00 0.8 -1.6 -4.3 S 7.4 -- 16.7 69 1023.2(-0.5/3h) 20 -- -- --
22:00 0.8 -2.2 -4.5 S 9.3 -- 18.5 68 1023.3(-0.6/3h) 20 -- -- --
21:00 1.8 -1 -4.8 S 9.3 -- 16.7 61 1023.3(-0.9/3h) 20 -- -- --
20:00 2.1 -0.1 -4.8 S 7.4 -- 14.8 60 1023.5(-0.8/3h) 20 -- -- --
19:00 2.4 2.4 -4.9 NNO 1.9 -- 9.3 58 1023.7(-0.8/3h) 20 -- -- --
18:00 2.0 2.0 -5.4 NNO 1.9 -- 14.8 58 1024.2(-0.6/3h) 20 -- -- --
17:00 3.6 3.6 -6.7 NNO 1.9 -- 9.3 47 1024(-0.9/3h) 20 -- -- --
16:00 5.8 4.8 -8.0 S 5.6 -- 11.1 36 1023.7(-1.2/3h) 20 -- -- --
15:00 6.9 6.9 -9.6 SSE 3.7 -- 14.8 30 1023.7(-1.7/3h) 20 -- -- --
14:00 7.4 7.4 -6.4 SSE 3.7 -- 13.0 37 1024(-2.0/3h) 20 -- -- --
13:00 6.6 5.2 -9.2 S 7.4 -- 14.8 31 1024.9(-1.6/3h) 20 -- -- --
12:00 6.0 5 -6.6 S 5.6 -- 13.0 40 1025.7(-1.1/3h) 20 -- -- --
11:00 5.5 5.5 -7.2 S 3.7 -- 13.0 39 1026.7(-0.5/3h) 20 -- -- --
10:00 3.9 3.9 -5.1 S 3.7 -- 9.3 52 1027.2(-0.8/3h) 20 -- -- --
09:00 0.0 0.0 -2.0 NNO 1.9 -- 5.6 86 1028.5(-0.6/3h) 14 -- -- --
08:00 -3.9 -3.9 -4.7 NNO 1.9 -- 5.6 94 1029.7(-0.5/3h) 8 -- -- --
07:00 -6.2 -6.2 -6.9 NNO 1.9 -- 5.6 95 1030.9(-0.3/3h) 8 -- -- --
06:00 -6.0 -6.0 -6.7 NNO 1.9 -- 3.7 95 1030.7(-0.7/3h) 10 -- -- --
05:00 -6.2 -6.2 -6.8 NNO 1.9 -- 3.7 95 1031(-1.1/3h) 7 -- -- --
04:00 -6.2 -6.2 -7.0 NNO 1.9 -- 1.9 94 1031.2(-1.2/3h) 8 -- -- --
03:00 -6.2 -6.2 -6.8 NNO 1.9 -- 3.7 95 1031.5(-1.2/3h) 8 -- -- --
02:00 -5.9 -5.9 -6.7 NNO 1.9 -- 1.9 94 1032(-0.8/3h) 7 -- -- --
01:00 -5.1 -5.1 -5.7 NNO 1.9 -- 3.7 96 1032.2(-0.6/3h) 6 -- -- --
00:00 -5.3 -5.3 -6.0 NNO 1.9 -- 3.7 95 1032.7(-0.4/3h) 4.7 -- -- Du brouillard ou du brouillard glacé (plus correctement designé sous le nom de brume) est observé et la visibilité n'est ni inférieure à 5/8 de mille ni supérieure à 6 milles

1 Coordinated Universal Time. Actuellement il est 03:00 locale et 01:00 UTC.

2 Le vent souffle depuis la direction indiquée vers la direction oposée.

3 Les rafales max. sont disponible 40 min après l'heure du relevé.

4 Pour les stations d'altitude (plus de 600m) le géopotentiel du niveau le plus proche de la pression obligatoire est indiqué.

5 Les stations disposant d'un diffuseur peuvent indiquer "trace". Cela signifie que des précipitations ont touchés le sol mais que la quantité est inférieure à 0.1 mm.

Récapitulatif de la journée
Température [°C] Vent [km/h] Ensoleillement4 [h] Precipitations totale5 [mm] Pression [Hpa]
Min1 Max.2 Moy.3 Max. Min Max.
-6.7 7.6 0 18.5 0 h 0 min 0 1023.2 1032.7

1 Température minimale relevée entre 18:00 UTC la veille et 18:00 UTC le jour donné.

2 Température maximale relevée entre 06:00 UTC le jour donné et 06:00 UTC le lendemain.

3 Vent moyen de la journée basé sur les relevés horaires.

4 Ensoleillement en heures relevé entre 06:00 UTC la veille et 06:00 UTC le jour donné.

5 Précipitations totales tombées entre 06:00 UTC la jour donné et 06:00 UTC le lendemain.

Graphiques horaires